Terminal Aerodrome Forecast
Issued by NWS Nashville, TN

Home | Current Version | Previous Version | Text Only | Print | Product List | Glossary On
Versions: 1 2 3 4 5 6 7 8 9 10 11 12 13 14 15 16 17 18 19 20
000
FTUS44 KOHX 242100 AAA
TAFBNA
TAF AMD
KBNA 242115Z 2421/2518 33005KT P6SM SCT035
     FM250000 02004KT P6SM SKC
      TEMPO 2510/2513 4SM BR
     FM251300 06003KT P6SM SCT250=

USA.gov is the U.S. government's official web portal to all federal, state and local government web resources and services.